KAND/AND METAR and TAF weather

Enter ICAO airport designator
Station Type Date Time Source
KAND METAR 2018/04/20 08:56 UTC NOAA

KAND 200856Z AUTO 07008KT 10SM CLR 06/M01 A3026 RMK AO2 SLP243 T00561011 53016


Station Type Date Time Source
KAND Decoded METAR 2018/04/20 08:56 UTC NOAA

ANDERSON COUNTY AIRPORT, SC, United States (KAND) 34-30N 82-43W 239M
Apr 20, 2018 - 04:56 AM EDT / 2018.04.20 0856 UTC
Wind: from the ENE (070 degrees) at 9 MPH (8 KT):0
Visibility: 10 mile(s):0
Sky conditions: clear
Temperature: 42.1 F (5.6 C)
Dew Point: 30.0 F (-1.1 C)
Relative Humidity: 61%
Pressure (altimeter): 30.26 in. Hg (1024 hPa)
Pressure tendency: 0.05 inches (1.6 hPa) higher than three hours ago
ob: KAND 200856Z AUTO 07008KT 10SM CLR 06/M01 A3026 RMK AO2 SLP243 T00561011 53016
cycle: 9

Station Type Date Time Source
KAND TAF 2018/04/20 06:36 UTC NOAA

TAF KAND 200534Z 2006/2106 04006KT P6SM SKC
FM202000 VRB03KT P6SM SKC


Example: see airport list